sensor_id;sensor_type;location;lat;lon;timestamp;P1;P2;P0
76679;PMS5003;65597;51.520;-0.224;2023-04-29T00:01:47;41;37;
76679;PMS5003;65597;51.520;-0.224;2023-04-29T00:04:13;40;37;
76679;PMS5003;65597;51.520;-0.224;2023-04-29T00:06:38;36;34;
76679;PMS5003;65597;51.520;-0.224;2023-04-29T00:09:04;41;36;
76679;PMS5003;65597;51.520;-0.224;2023-04-29T00:11:29;32;31;
76679;PMS5003;65597;51.520;-0.224;2023-04-29T00:13:54;35;33;
76679;PMS5003;65597;51.520;-0.224;2023-04-29T00:16:20;37;35;
76679;PMS5003;65597;51.520;-0.224;2023-04-29T00:18:45;39;34;
76679;PMS5003;65597;51.520;-0.224;2023-04-29T00:21:11;35;33;
76679;PMS5003;65597;51.520;-0.224;2023-04-29T00:23:36;33;32;
76679;PMS5003;65597;51.520;-0.224;2023-04-29T00:26:02;35;34;
76679;PMS5003;65597;51.520;-0.224;2023-04-29T00:28:27;39;34;
76679;PMS5003;65597;51.520;-0.224;2023-04-29T00:30:52;37;36;
76679;PMS5003;65597;51.520;-0.224;2023-04-29T00:33:19;41;36;
76679;PMS5003;65597;51.520;-0.224;2023-04-29T00:35:43;35;33;
76679;PMS5003;65597;51.520;-0.224;2023-04-29T00:38:09;36;35;
76679;PMS5003;65597;51.520;-0.224;2023-04-29T00:40:34;37;36;
76679;PMS5003;65597;51.520;-0.224;2023-04-29T00:43:00;31;30;
76679;PMS5003;65597;51.520;-0.224;2023-04-29T00:45:25;36;34;
76679;PMS5003;65597;51.520;-0.224;2023-04-29T00:47:50;40;40;
76679;PMS5003;65597;51.520;-0.224;2023-04-29T00:50:16;41;35;
76679;PMS5003;65597;51.520;-0.224;2023-04-29T00:52:42;39;36;
76679;PMS5003;65597;51.520;-0.224;2023-04-29T00:55:07;41;36;
76679;PMS5003;65597;51.520;-0.224;2023-04-29T00:57:33;33;33;
76679;PMS5003;65597;51.520;-0.224;2023-04-29T00:59:58;36;35;
76679;PMS5003;65597;51.520;-0.224;2023-04-29T01:02:23;35;34;
76679;PMS5003;65597;51.520;-0.224;2023-04-29T01:04:49;39;37;
76679;PMS5003;65597;51.520;-0.224;2023-04-29T01:07:14;32;31;
76679;PMS5003;65597;51.520;-0.224;2023-04-29T01:09:43;40;36;
76679;PMS5003;65597;51.520;-0.224;2023-04-29T01:12:07;34;33;
76679;PMS5003;65597;51.520;-0.224;2023-04-29T01:14:30;35;34;
76679;PMS5003;65597;51.520;-0.224;2023-04-29T01:16:55;42;36;
76679;PMS5003;65597;51.520;-0.224;2023-04-29T01:19:23;44;39;
76679;PMS5003;65597;51.520;-0.224;2023-04-29T01:21:47;44;42;
76679;PMS5003;65597;51.520;-0.224;2023-04-29T01:24:11;47;40;
76679;PMS5003;65597;51.520;-0.224;2023-04-29T01:26:36;41;38;
76679;PMS5003;65597;51.520;-0.224;2023-04-29T01:29:07;39;39;
76679;PMS5003;65597;51.520;-0.224;2023-04-29T01:31:30;44;41;
76679;PMS5003;65597;51.520;-0.224;2023-04-29T01:33:56;40;36;
76679;PMS5003;65597;51.520;-0.224;2023-04-29T01:36:21;36;35;
76679;PMS5003;65597;51.520;-0.224;2023-04-29T01:38:44;36;35;
76679;PMS5003;65597;51.520;-0.224;2023-04-29T01:41:09;41;36;
76679;PMS5003;65597;51.520;-0.224;2023-04-29T01:43:34;49;45;
76679;PMS5003;65597;51.520;-0.224;2023-04-29T01:46:01;46;41;
76679;PMS5003;65597;51.520;-0.224;2023-04-29T01:48:25;47;41;
76679;PMS5003;65597;51.520;-0.224;2023-04-29T01:50:50;42;36;
76679;PMS5003;65597;51.520;-0.224;2023-04-29T01:53:16;47;42;
76679;PMS5003;65597;51.520;-0.224;2023-04-29T01:55:41;48;39;
76679;PMS5003;65597;51.520;-0.224;2023-04-29T01:58:07;38;38;
76679;PMS5003;65597;51.520;-0.224;2023-04-29T02:00:32;37;34;
76679;PMS5003;65597;51.520;-0.224;2023-04-29T02:02:57;46;42;
76679;PMS5003;65597;51.520;-0.224;2023-04-29T02:05:22;46;42;
76679;PMS5003;65597;51.520;-0.224;2023-04-29T02:07:48;44;39;
76679;PMS5003;65597;51.520;-0.224;2023-04-29T02:10:14;46;40;
76679;PMS5003;65597;51.520;-0.224;2023-04-29T02:12:39;41;38;
76679;PMS5003;65597;51.520;-0.224;2023-04-29T02:15:05;40;37;
76679;PMS5003;65597;51.520;-0.224;2023-04-29T02:17:29;48;43;
76679;PMS5003;65597;51.520;-0.224;2023-04-29T02:19:55;37;36;
76679;PMS5003;65597;51.520;-0.224;2023-04-29T02:22:21;43;39;
76679;PMS5003;65597;51.520;-0.224;2023-04-29T02:24:46;42;40;
76679;PMS5003;65597;51.520;-0.224;2023-04-29T02:27:11;45;38;
76679;PMS5003;65597;51.520;-0.224;2023-04-29T02:29:37;43;39;
76679;PMS5003;65597;51.520;-0.224;2023-04-29T02:32:02;42;38;
76679;PMS5003;65597;51.520;-0.224;2023-04-29T02:34:28;44;41;
76679;PMS5003;65597;51.520;-0.224;2023-04-29T02:36:53;38;37;
76679;PMS5003;65597;51.520;-0.224;2023-04-29T02:39:18;48;39;
76679;PMS5003;65597;51.520;-0.224;2023-04-29T02:41:44;40;39;
76679;PMS5003;65597;51.520;-0.224;2023-04-29T02:44:10;36;35;
76679;PMS5003;65597;51.520;-0.224;2023-04-29T02:46:36;43;40;
76679;PMS5003;65597;51.520;-0.224;2023-04-29T02:49:00;45;40;
76679;PMS5003;65597;51.520;-0.224;2023-04-29T02:51:25;42;37;
76679;PMS5003;65597;51.520;-0.224;2023-04-29T02:53:51;37;35;
76679;PMS5003;65597;51.520;-0.224;2023-04-29T02:56:16;39;35;
76679;PMS5003;65597;51.520;-0.224;2023-04-29T02:58:42;40;37;
76679;PMS5003;65597;51.520;-0.224;2023-04-29T03:01:07;38;35;
76679;PMS5003;65597;51.520;-0.224;2023-04-29T03:03:33;45;40;
76679;PMS5003;65597;51.520;-0.224;2023-04-29T03:05:59;44;39;
76679;PMS5003;65597;51.520;-0.224;2023-04-29T03:08:24;42;37;
76679;PMS5003;65597;51.520;-0.224;2023-04-29T03:10:50;44;40;
76679;PMS5003;65597;51.520;-0.224;2023-04-29T03:13:15;38;36;
76679;PMS5003;65597;51.520;-0.224;2023-04-29T03:15:41;39;37;
76679;PMS5003;65597;51.520;-0.224;2023-04-29T03:18:06;40;37;
76679;PMS5003;65597;51.520;-0.224;2023-04-29T03:20:32;40;39;
76679;PMS5003;65597;51.520;-0.224;2023-04-29T03:22:59;44;40;
76679;PMS5003;65597;51.520;-0.224;2023-04-29T03:25:23;38;38;
76679;PMS5003;65597;51.520;-0.224;2023-04-29T03:27:48;42;40;
76679;PMS5003;65597;51.520;-0.224;2023-04-29T03:30:14;43;37;
76679;PMS5003;65597;51.520;-0.224;2023-04-29T03:32:40;46;43;
76679;PMS5003;65597;51.520;-0.224;2023-04-29T03:35:07;41;36;
76679;PMS5003;65597;51.520;-0.224;2023-04-29T03:37:31;47;43;
76679;PMS5003;65597;51.520;-0.224;2023-04-29T03:39:56;44;40;
76679;PMS5003;65597;51.520;-0.224;2023-04-29T03:42:22;37;35;
76679;PMS5003;65597;51.520;-0.224;2023-04-29T03:44:47;48;40;
76679;PMS5003;65597;51.520;-0.224;2023-04-29T03:47:14;40;39;
76679;PMS5003;65597;51.520;-0.224;2023-04-29T03:49:38;45;42;
76679;PMS5003;65597;51.520;-0.224;2023-04-29T03:52:04;46;41;
76679;PMS5003;65597;51.520;-0.224;2023-04-29T03:54:29;44;40;
76679;PMS5003;65597;51.520;-0.224;2023-04-29T03:56:55;43;39;
76679;PMS5003;65597;51.520;-0.224;2023-04-29T03:59:21;42;39;
76679;PMS5003;65597;51.520;-0.224;2023-04-29T04:01:46;38;36;
76679;PMS5003;65597;51.520;-0.224;2023-04-29T04:04:11;43;39;
76679;PMS5003;65597;51.520;-0.224;2023-04-29T04:06:36;45;39;
76679;PMS5003;65597;51.520;-0.224;2023-04-29T04:09:01;43;37;
76679;PMS5003;65597;51.520;-0.224;2023-04-29T04:11:27;42;37;
76679;PMS5003;65597;51.520;-0.224;2023-04-29T04:13:53;37;37;
76679;PMS5003;65597;51.520;-0.224;2023-04-29T04:16:18;37;35;
76679;PMS5003;65597;51.520;-0.224;2023-04-29T04:18:44;39;37;
76679;PMS5003;65597;51.520;-0.224;2023-04-29T04:21:09;39;38;
76679;PMS5003;65597;51.520;-0.224;2023-04-29T04:23:36;48;41;
76679;PMS5003;65597;51.520;-0.224;2023-04-29T04:26:00;43;40;
76679;PMS5003;65597;51.520;-0.224;2023-04-29T04:28:25;44;42;
76679;PMS5003;65597;51.520;-0.224;2023-04-29T04:30:51;38;36;
76679;PMS5003;65597;51.520;-0.224;2023-04-29T04:33:16;39;37;
76679;PMS5003;65597;51.520;-0.224;2023-04-29T04:35:42;36;36;
76679;PMS5003;65597;51.520;-0.224;2023-04-29T04:38:07;41;38;
76679;PMS5003;65597;51.520;-0.224;2023-04-29T04:40:32;37;37;
76679;PMS5003;65597;51.520;-0.224;2023-04-29T04:42:58;41;38;
76679;PMS5003;65597;51.520;-0.224;2023-04-29T04:45:23;41;36;
76679;PMS5003;65597;51.520;-0.224;2023-04-29T04:47:50;43;37;
76679;PMS5003;65597;51.520;-0.224;2023-04-29T04:50:14;46;41;
76679;PMS5003;65597;51.520;-0.224;2023-04-29T04:52:39;46;41;
76679;PMS5003;65597;51.520;-0.224;2023-04-29T04:55:05;47;42;
76679;PMS5003;65597;51.520;-0.224;2023-04-29T04:57:30;48;42;
76679;PMS5003;65597;51.520;-0.224;2023-04-29T04:59:57;43;41;
76679;PMS5003;65597;51.520;-0.224;2023-04-29T05:02:20;43;39;
76679;PMS5003;65597;51.520;-0.224;2023-04-29T05:04:46;43;41;
76679;PMS5003;65597;51.520;-0.224;2023-04-29T05:07:11;44;38;
76679;PMS5003;65597;51.520;-0.224;2023-04-29T05:09:36;42;38;
76679;PMS5003;65597;51.520;-0.224;2023-04-29T05:12:02;42;41;
76679;PMS5003;65597;51.520;-0.224;2023-04-29T05:14:28;43;39;
76679;PMS5003;65597;51.520;-0.224;2023-04-29T05:16:57;43;39;
76679;PMS5003;65597;51.520;-0.224;2023-04-29T05:19:19;50;45;
76679;PMS5003;65597;51.520;-0.224;2023-04-29T05:21:44;41;38;
76679;PMS5003;65597;51.520;-0.224;2023-04-29T05:24:11;41;36;
76679;PMS5003;65597;51.520;-0.224;2023-04-29T05:26:36;35;34;
76679;PMS5003;65597;51.520;-0.224;2023-04-29T05:29:01;45;41;
76679;PMS5003;65597;51.520;-0.224;2023-04-29T05:31:27;43;39;
76679;PMS5003;65597;51.520;-0.224;2023-04-29T05:33:52;40;37;
76679;PMS5003;65597;51.520;-0.224;2023-04-29T05:36:20;43;35;
76679;PMS5003;65597;51.520;-0.224;2023-04-29T05:38:44;33;32;
76679;PMS5003;65597;51.520;-0.224;2023-04-29T05:41:09;34;33;
76679;PMS5003;65597;51.520;-0.224;2023-04-29T05:43:34;38;35;
76679;PMS5003;65597;51.520;-0.224;2023-04-29T05:46:00;41;36;
76679;PMS5003;65597;51.520;-0.224;2023-04-29T05:48:26;38;34;
76679;PMS5003;65597;51.520;-0.224;2023-04-29T05:50:51;44;40;
76679;PMS5003;65597;51.520;-0.224;2023-04-29T05:53:16;47;42;
76679;PMS5003;65597;51.520;-0.224;2023-04-29T05:55:41;41;35;
76679;PMS5003;65597;51.520;-0.224;2023-04-29T05:58:07;37;32;
76679;PMS5003;65597;51.520;-0.224;2023-04-29T06:00:32;41;36;
76679;PMS5003;65597;51.520;-0.224;2023-04-29T06:02:58;34;32;
76679;PMS5003;65597;51.520;-0.224;2023-04-29T06:05:23;34;34;
76679;PMS5003;65597;51.520;-0.224;2023-04-29T06:07:48;41;36;
76679;PMS5003;65597;51.520;-0.224;2023-04-29T06:10:14;38;34;
76679;PMS5003;65597;51.520;-0.224;2023-04-29T06:12:39;29;29;
76679;PMS5003;65597;51.520;-0.224;2023-04-29T06:15:05;27;25;
76679;PMS5003;65597;51.520;-0.224;2023-04-29T06:17:30;40;36;
76679;PMS5003;65597;51.520;-0.224;2023-04-29T06:19:56;33;30;
76679;PMS5003;65597;51.520;-0.224;2023-04-29T06:22:21;34;31;
76679;PMS5003;65597;51.520;-0.224;2023-04-29T06:24:49;32;29;
76679;PMS5003;65597;51.520;-0.224;2023-04-29T06:27:12;34;29;
76679;PMS5003;65597;51.520;-0.224;2023-04-29T06:29:38;32;29;
76679;PMS5003;65597;51.520;-0.224;2023-04-29T06:32:04;29;28;
76679;PMS5003;65597;51.520;-0.224;2023-04-29T06:34:29;31;29;
76679;PMS5003;65597;51.520;-0.224;2023-04-29T06:36:54;30;27;
76679;PMS5003;65597;51.520;-0.224;2023-04-29T06:39:20;25;24;
76679;PMS5003;65597;51.520;-0.224;2023-04-29T06:41:45;25;25;
76679;PMS5003;65597;51.520;-0.224;2023-04-29T06:44:10;32;30;
76679;PMS5003;65597;51.520;-0.224;2023-04-29T06:46:36;27;25;
76679;PMS5003;65597;51.520;-0.224;2023-04-29T06:49:03;31;27;
76679;PMS5003;65597;51.520;-0.224;2023-04-29T06:51:27;36;31;
76679;PMS5003;65597;51.520;-0.224;2023-04-29T06:53:53;29;27;
76679;PMS5003;65597;51.520;-0.224;2023-04-29T06:56:18;36;30;
76679;PMS5003;65597;51.520;-0.224;2023-04-29T06:58:43;29;28;
76679;PMS5003;65597;51.520;-0.224;2023-04-29T07:01:09;23;23;
76679;PMS5003;65597;51.520;-0.224;2023-04-29T07:03:35;30;26;
76679;PMS5003;65597;51.520;-0.224;2023-04-29T07:06:00;27;26;
76679;PMS5003;65597;51.520;-0.224;2023-04-29T07:08:25;24;23;
76679;PMS5003;65597;51.520;-0.224;2023-04-29T07:10:53;29;26;
76679;PMS5003;65597;51.520;-0.224;2023-04-29T07:13:15;33;27;
76679;PMS5003;65597;51.520;-0.224;2023-04-29T07:15:40;25;23;
76679;PMS5003;65597;51.520;-0.224;2023-04-29T07:18:05;24;22;
76679;PMS5003;65597;51.520;-0.224;2023-04-29T07:20:31;23;22;
76679;PMS5003;65597;51.520;-0.224;2023-04-29T07:22:56;26;26;
76679;PMS5003;65597;51.520;-0.224;2023-04-29T07:25:25;24;23;
76679;PMS5003;65597;51.520;-0.224;2023-04-29T07:27:47;26;24;
76679;PMS5003;65597;51.520;-0.224;2023-04-29T07:30:12;22;21;
76679;PMS5003;65597;51.520;-0.224;2023-04-29T07:32:37;26;21;
76679;PMS5003;65597;51.520;-0.224;2023-04-29T07:35:03;27;23;
76679;PMS5003;65597;51.520;-0.224;2023-04-29T07:37:31;24;24;
76679;PMS5003;65597;51.520;-0.224;2023-04-29T07:39:54;22;21;
76679;PMS5003;65597;51.520;-0.224;2023-04-29T07:42:20;23;23;
76679;PMS5003;65597;51.520;-0.224;2023-04-29T07:44:50;27;23;
76679;PMS5003;65597;51.520;-0.224;2023-04-29T07:47:10;21;20;
76679;PMS5003;65597;51.520;-0.224;2023-04-29T07:49:37;19;18;
76679;PMS5003;65597;51.520;-0.224;2023-04-29T07:52:03;17;17;
76679;PMS5003;65597;51.520;-0.224;2023-04-29T07:54:27;19;19;
76679;PMS5003;65597;51.520;-0.224;2023-04-29T07:56:58;21;21;
76679;PMS5003;65597;51.520;-0.224;2023-04-29T07:59:19;23;19;
76679;PMS5003;65597;51.520;-0.224;2023-04-29T08:01:44;22;20;
76679;PMS5003;65597;51.520;-0.224;2023-04-29T08:04:10;18;15;
76679;PMS5003;65597;51.520;-0.224;2023-04-29T08:06:35;20;19;
76679;PMS5003;65597;51.520;-0.224;2023-04-29T08:09:00;26;21;
76679;PMS5003;65597;51.520;-0.224;2023-04-29T08:11:25;23;21;
76679;PMS5003;65597;51.520;-0.224;2023-04-29T08:13:52;18;18;
76679;PMS5003;65597;51.520;-0.224;2023-04-29T08:16:21;24;24;
76679;PMS5003;65597;51.520;-0.224;2023-04-29T08:18:42;19;19;
76679;PMS5003;65597;51.520;-0.224;2023-04-29T08:21:08;27;24;
76679;PMS5003;65597;51.520;-0.224;2023-04-29T08:23:33;17;17;
76679;PMS5003;65597;51.520;-0.224;2023-04-29T08:25:58;23;22;
76679;PMS5003;65597;51.520;-0.224;2023-04-29T08:28:24;24;22;
76679;PMS5003;65597;51.520;-0.224;2023-04-29T08:30:50;23;21;
76679;PMS5003;65597;51.520;-0.224;2023-04-29T08:33:15;22;21;
76679;PMS5003;65597;51.520;-0.224;2023-04-29T08:35:40;24;23;
76679;PMS5003;65597;51.520;-0.224;2023-04-29T08:38:08;26;23;
76679;PMS5003;65597;51.520;-0.224;2023-04-29T08:40:33;29;25;
76679;PMS5003;65597;51.520;-0.224;2023-04-29T08:42:56;25;23;
76679;PMS5003;65597;51.520;-0.224;2023-04-29T08:45:22;28;25;
76679;PMS5003;65597;51.520;-0.224;2023-04-29T08:47:48;31;28;
76679;PMS5003;65597;51.520;-0.224;2023-04-29T08:50:14;27;24;
76679;PMS5003;65597;51.520;-0.224;2023-04-29T08:52:39;29;24;
76679;PMS5003;65597;51.520;-0.224;2023-04-29T08:55:05;32;27;
76679;PMS5003;65597;51.520;-0.224;2023-04-29T08:57:30;32;26;
76679;PMS5003;65597;51.520;-0.224;2023-04-29T08:59:54;31;29;
76679;PMS5003;65597;51.520;-0.224;2023-04-29T09:02:20;31;27;
76679;PMS5003;65597;51.520;-0.224;2023-04-29T09:04:46;30;26;
76679;PMS5003;65597;51.520;-0.224;2023-04-29T09:07:10;26;25;
76679;PMS5003;65597;51.520;-0.224;2023-04-29T09:09:36;29;26;
76679;PMS5003;65597;51.520;-0.224;2023-04-29T09:12:01;28;25;
76679;PMS5003;65597;51.520;-0.224;2023-04-29T09:14:27;35;29;
76679;PMS5003;65597;51.520;-0.224;2023-04-29T09:16:52;29;28;
76679;PMS5003;65597;51.520;-0.224;2023-04-29T09:21:44;24;24;
76679;PMS5003;65597;51.520;-0.224;2023-04-29T09:24:07;32;25;
76679;PMS5003;65597;51.520;-0.224;2023-04-29T09:26:35;25;25;
76679;PMS5003;65597;51.520;-0.224;2023-04-29T09:31:26;23;23;
76679;PMS5003;65597;51.520;-0.224;2023-04-29T09:33:49;21;21;
76679;PMS5003;65597;51.520;-0.224;2023-04-29T09:36:15;27;25;
76679;PMS5003;65597;51.520;-0.224;2023-04-29T09:41:08;23;22;
76679;PMS5003;65597;51.520;-0.224;2023-04-29T09:43:30;25;24;
76679;PMS5003;65597;51.520;-0.224;2023-04-29T09:45:56;26;22;
76679;PMS5003;65597;51.520;-0.224;2023-04-29T09:48:21;26;23;
76679;PMS5003;65597;51.520;-0.224;2023-04-29T09:53:14;21;21;
76679;PMS5003;65597;51.520;-0.224;2023-04-29T09:58:02;29;25;
76679;PMS5003;65597;51.520;-0.224;2023-04-29T10:00:29;34;27;
76679;PMS5003;65597;51.520;-0.224;2023-04-29T10:02:55;27;26;
76679;PMS5003;65597;51.520;-0.224;2023-04-29T10:05:19;23;20;
76679;PMS5003;65597;51.520;-0.224;2023-04-29T10:07:45;26;26;
76679;PMS5003;65597;51.520;-0.224;2023-04-29T10:10:09;25;23;
76679;PMS5003;65597;51.520;-0.224;2023-04-29T10:12:35;21;20;
76679;PMS5003;65597;51.520;-0.224;2023-04-29T10:15:02;24;22;
76679;PMS5003;65597;51.520;-0.224;2023-04-29T10:17:27;24;23;
76679;PMS5003;65597;51.520;-0.224;2023-04-29T10:19:52;20;19;
76679;PMS5003;65597;51.520;-0.224;2023-04-29T10:22:18;24;21;
76679;PMS5003;65597;51.520;-0.224;2023-04-29T10:24:42;22;19;
76679;PMS5003;65597;51.520;-0.224;2023-04-29T10:27:09;22;22;
76679;PMS5003;65597;51.520;-0.224;2023-04-29T10:29:34;21;20;
76679;PMS5003;65597;51.520;-0.224;2023-04-29T10:31:59;22;20;
76679;PMS5003;65597;51.520;-0.224;2023-04-29T10:34:24;22;21;
76679;PMS5003;65597;51.520;-0.224;2023-04-29T10:36:50;25;23;
76679;PMS5003;65597;51.520;-0.224;2023-04-29T10:39:19;24;20;
76679;PMS5003;65597;51.520;-0.224;2023-04-29T10:41:42;25;19;
76679;PMS5003;65597;51.520;-0.224;2023-04-29T10:44:06;23;22;
76679;PMS5003;65597;51.520;-0.224;2023-04-29T10:46:31;25;23;
76679;PMS5003;65597;51.520;-0.224;2023-04-29T10:48:59;24;22;
76679;PMS5003;65597;51.520;-0.224;2023-04-29T10:51:27;34;29;
76679;PMS5003;65597;51.520;-0.224;2023-04-29T10:56:13;22;22;
76679;PMS5003;65597;51.520;-0.224;2023-04-29T10:58:40;26;23;
76679;PMS5003;65597;51.520;-0.224;2023-04-29T11:01:04;25;24;
76679;PMS5003;65597;51.520;-0.224;2023-04-29T11:08:22;19;18;
76679;PMS5003;65597;51.520;-0.224;2023-04-29T11:10:46;30;26;
76679;PMS5003;65597;51.520;-0.224;2023-04-29T11:13:19;25;22;
76679;PMS5003;65597;51.520;-0.224;2023-04-29T11:15:39;21;20;
76679;PMS5003;65597;51.520;-0.224;2023-04-29T11:18:02;26;21;
76679;PMS5003;65597;51.520;-0.224;2023-04-29T11:20:27;23;21;
76679;PMS5003;65597;51.520;-0.224;2023-04-29T11:22:53;23;23;
76679;PMS5003;65597;51.520;-0.224;2023-04-29T11:25:18;25;19;
76679;PMS5003;65597;51.520;-0.224;2023-04-29T11:27:44;24;22;
76679;PMS5003;65597;51.520;-0.224;2023-04-29T11:30:09;24;20;
76679;PMS5003;65597;51.520;-0.224;2023-04-29T11:32:36;22;21;
76679;PMS5003;65597;51.520;-0.224;2023-04-29T11:35:06;29;23;
76679;PMS5003;65597;51.520;-0.224;2023-04-29T11:37:25;27;22;
76679;PMS5003;65597;51.520;-0.224;2023-04-29T11:39:52;24;22;
76679;PMS5003;65597;51.520;-0.224;2023-04-29T11:42:20;19;19;
76679;PMS5003;65597;51.520;-0.224;2023-04-29T11:44:41;24;21;
76679;PMS5003;65597;51.520;-0.224;2023-04-29T11:47:07;20;19;
76679;PMS5003;65597;51.520;-0.224;2023-04-29T11:49:33;21;20;
76679;PMS5003;65597;51.520;-0.224;2023-04-29T11:51:59;22;21;
76679;PMS5003;65597;51.520;-0.224;2023-04-29T11:54:24;20;19;
76679;PMS5003;65597;51.520;-0.224;2023-04-29T11:56:48;22;18;
76679;PMS5003;65597;51.520;-0.224;2023-04-29T11:59:14;25;24;
76679;PMS5003;65597;51.520;-0.224;2023-04-29T12:01:39;23;22;
76679;PMS5003;65597;51.520;-0.224;2023-04-29T12:04:06;22;21;
76679;PMS5003;65597;51.520;-0.224;2023-04-29T12:06:29;24;23;
76679;PMS5003;65597;51.520;-0.224;2023-04-29T12:08:57;17;17;
76679;PMS5003;65597;51.520;-0.224;2023-04-29T12:11:21;25;22;
76679;PMS5003;65597;51.520;-0.224;2023-04-29T12:13:46;19;19;
76679;PMS5003;65597;51.520;-0.224;2023-04-29T12:16:11;27;21;
76679;PMS5003;65597;51.520;-0.224;2023-04-29T12:18:36;20;19;
76679;PMS5003;65597;51.520;-0.224;2023-04-29T12:21:01;24;20;
76679;PMS5003;65597;51.520;-0.224;2023-04-29T12:23:26;19;19;
76679;PMS5003;65597;51.520;-0.224;2023-04-29T12:25:52;20;17;
76679;PMS5003;65597;51.520;-0.224;2023-04-29T12:28:18;20;17;
76679;PMS5003;65597;51.520;-0.224;2023-04-29T12:30:43;15;15;
76679;PMS5003;65597;51.520;-0.224;2023-04-29T12:33:08;25;19;
76679;PMS5003;65597;51.520;-0.224;2023-04-29T12:35:34;18;18;
76679;PMS5003;65597;51.520;-0.224;2023-04-29T12:37:58;18;18;
76679;PMS5003;65597;51.520;-0.224;2023-04-29T12:40:24;17;15;
76679;PMS5003;65597;51.520;-0.224;2023-04-29T12:42:49;19;18;
76679;PMS5003;65597;51.520;-0.224;2023-04-29T12:47:40;16;16;
76679;PMS5003;65597;51.520;-0.224;2023-04-29T12:50:06;18;15;
76679;PMS5003;65597;51.520;-0.224;2023-04-29T12:52:31;15;15;
76679;PMS5003;65597;51.520;-0.224;2023-04-29T12:54:56;13;13;
76679;PMS5003;65597;51.520;-0.224;2023-04-29T12:57:21;13;13;
76679;PMS5003;65597;51.520;-0.224;2023-04-29T12:59:47;11;11;
76679;PMS5003;65597;51.520;-0.224;2023-04-29T13:02:12;13;13;
76679;PMS5003;65597;51.520;-0.224;2023-04-29T13:04:38;12;11;
76679;PMS5003;65597;51.520;-0.224;2023-04-29T13:07:03;15;15;
76679;PMS5003;65597;51.520;-0.224;2023-04-29T13:09:28;17;15;
76679;PMS5003;65597;51.520;-0.224;2023-04-29T13:11:53;15;14;
76679;PMS5003;65597;51.520;-0.224;2023-04-29T13:14:18;19;17;
76679;PMS5003;65597;51.520;-0.224;2023-04-29T13:16:43;24;17;
76679;PMS5003;65597;51.520;-0.224;2023-04-29T13:19:09;21;18;
76679;PMS5003;65597;51.520;-0.224;2023-04-29T13:21:34;18;17;
76679;PMS5003;65597;51.520;-0.224;2023-04-29T13:23:59;16;15;
76679;PMS5003;65597;51.520;-0.224;2023-04-29T13:26:25;17;16;
76679;PMS5003;65597;51.520;-0.224;2023-04-29T13:28:50;17;16;
76679;PMS5003;65597;51.520;-0.224;2023-04-29T13:31:15;17;17;
76679;PMS5003;65597;51.520;-0.224;2023-04-29T13:33:41;18;18;
76679;PMS5003;65597;51.520;-0.224;2023-04-29T13:36:06;16;15;
76679;PMS5003;65597;51.520;-0.224;2023-04-29T13:38:31;12;12;
76679;PMS5003;65597;51.520;-0.224;2023-04-29T13:40:58;15;14;
76679;PMS5003;65597;51.520;-0.224;2023-04-29T13:43:23;13;13;
76679;PMS5003;65597;51.520;-0.224;2023-04-29T13:45:48;15;14;
76679;PMS5003;65597;51.520;-0.224;2023-04-29T13:48:14;14;13;
76679;PMS5003;65597;51.520;-0.224;2023-04-29T13:50:39;10;10;
76679;PMS5003;65597;51.520;-0.224;2023-04-29T13:53:05;16;16;
76679;PMS5003;65597;51.520;-0.224;2023-04-29T13:55:30;14;13;
76679;PMS5003;65597;51.520;-0.224;2023-04-29T13:57:56;13;13;
76679;PMS5003;65597;51.520;-0.224;2023-04-29T14:00:22;16;13;
76679;PMS5003;65597;51.520;-0.224;2023-04-29T14:02:47;17;16;
76679;PMS5003;65597;51.520;-0.224;2023-04-29T14:05:13;14;14;
76679;PMS5003;65597;51.520;-0.224;2023-04-29T14:07:38;12;12;
76679;PMS5003;65597;51.520;-0.224;2023-04-29T14:10:04;15;14;
76679;PMS5003;65597;51.520;-0.224;2023-04-29T14:12:29;14;13;
76679;PMS5003;65597;51.520;-0.224;2023-04-29T14:14:54;13;13;
76679;PMS5003;65597;51.520;-0.224;2023-04-29T14:17:22;14;13;
76679;PMS5003;65597;51.520;-0.224;2023-04-29T14:19:45;11;11;
76679;PMS5003;65597;51.520;-0.224;2023-04-29T14:22:10;16;12;
76679;PMS5003;65597;51.520;-0.224;2023-04-29T14:24:35;15;14;
76679;PMS5003;65597;51.520;-0.224;2023-04-29T14:27:00;16;15;
76679;PMS5003;65597;51.520;-0.224;2023-04-29T14:29:26;11;11;
76679;PMS5003;65597;51.520;-0.224;2023-04-29T14:31:51;13;13;
76679;PMS5003;65597;51.520;-0.224;2023-04-29T14:34:16;12;12;
76679;PMS5003;65597;51.520;-0.224;2023-04-29T14:36:41;22;17;
76679;PMS5003;65597;51.520;-0.224;2023-04-29T14:39:07;16;15;
76679;PMS5003;65597;51.520;-0.224;2023-04-29T14:41:32;14;10;
76679;PMS5003;65597;51.520;-0.224;2023-04-29T14:43:57;15;14;
76679;PMS5003;65597;51.520;-0.224;2023-04-29T14:46:23;16;15;
76679;PMS5003;65597;51.520;-0.224;2023-04-29T14:48:48;13;12;
76679;PMS5003;65597;51.520;-0.224;2023-04-29T14:51:13;15;14;
76679;PMS5003;65597;51.520;-0.224;2023-04-29T14:53:41;17;15;
76679;PMS5003;65597;51.520;-0.224;2023-04-29T14:56:03;14;14;
76679;PMS5003;65597;51.520;-0.224;2023-04-29T14:58:28;11;11;
76679;PMS5003;65597;51.520;-0.224;2023-04-29T15:00:53;17;14;
76679;PMS5003;65597;51.520;-0.224;2023-04-29T15:03:18;18;15;
76679;PMS5003;65597;51.520;-0.224;2023-04-29T15:05:45;16;14;
76679;PMS5003;65597;51.520;-0.224;2023-04-29T15:08:09;15;14;
76679;PMS5003;65597;51.520;-0.224;2023-04-29T15:10:34;16;14;
76679;PMS5003;65597;51.520;-0.224;2023-04-29T15:12:59;14;13;
76679;PMS5003;65597;51.520;-0.224;2023-04-29T15:15:25;13;12;
76679;PMS5003;65597;51.520;-0.224;2023-04-29T15:17:51;15;15;
76679;PMS5003;65597;51.520;-0.224;2023-04-29T15:20:15;16;13;
76679;PMS5003;65597;51.520;-0.224;2023-04-29T15:22:41;14;13;
76679;PMS5003;65597;51.520;-0.224;2023-04-29T15:25:07;12;12;
76679;PMS5003;65597;51.520;-0.224;2023-04-29T15:27:32;19;14;
76679;PMS5003;65597;51.520;-0.224;2023-04-29T15:29:57;13;13;
76679;PMS5003;65597;51.520;-0.224;2023-04-29T15:32:22;13;13;
76679;PMS5003;65597;51.520;-0.224;2023-04-29T15:34:48;12;11;
76679;PMS5003;65597;51.520;-0.224;2023-04-29T15:37:13;12;12;
76679;PMS5003;65597;51.520;-0.224;2023-04-29T15:39:38;12;11;
76679;PMS5003;65597;51.520;-0.224;2023-04-29T15:42:05;10;10;
76679;PMS5003;65597;51.520;-0.224;2023-04-29T15:44:29;12;11;
76679;PMS5003;65597;51.520;-0.224;2023-04-29T15:46:54;14;12;
76679;PMS5003;65597;51.520;-0.224;2023-04-29T15:49:19;16;14;
76679;PMS5003;65597;51.520;-0.224;2023-04-29T15:51:44;13;12;
76679;PMS5003;65597;51.520;-0.224;2023-04-29T15:54:10;13;12;
76679;PMS5003;65597;51.520;-0.224;2023-04-29T15:56:35;13;13;
76679;PMS5003;65597;51.520;-0.224;2023-04-29T15:59:00;10;10;
76679;PMS5003;65597;51.520;-0.224;2023-04-29T16:01:25;14;14;
76679;PMS5003;65597;51.520;-0.224;2023-04-29T16:03:50;9;9;
76679;PMS5003;65597;51.520;-0.224;2023-04-29T16:06:15;16;12;
76679;PMS5003;65597;51.520;-0.224;2023-04-29T16:08:41;10;10;
76679;PMS5003;65597;51.520;-0.224;2023-04-29T16:11:06;9;9;